Time;durP1;ratioP1;P1;durP2;ratioP2;P2;SDS_P1;SDS_P2;PMS_P1;PMS_P2;Temp;Humidity;BMP_temperature;BMP_pressure;BME280_temperature;BME280_humidity;BME280_pressure;Samples;Min_cycle;Max_cycle;Signal;HPM_P1;HPM_P2
2023/05/15 00:02:08;;;;;;;;;;;;;;;10.19;86.71;96633.31;5134860;27;19929;-58
2023/05/15 00:04:34;;;;;;;;;;;;;;;10.17;86.62;96633.38;5134801;27;19923;-58
2023/05/15 00:07:01;;;;;;;;;;;;;;;10.14;87.14;96628.25;5134823;27;19976;-58
2023/05/15 00:09:28;;;;;;;;;;;;;;;10.14;86.87;96632.66;5134835;27;19923;-58
2023/05/15 00:11:55;;;;;;;;;;;;;;;10.12;87.11;96619.63;5134634;27;19923;-58
2023/05/15 00:14:22;;;;;;;;;;;;;;;10.15;87.32;96616.91;5134787;27;19964;-59
2023/05/15 00:16:49;;;;;;;;;;;;;;;10.17;87.28;96615.06;5134727;27;19924;-58
2023/05/15 00:19:17;;;;;;;;;;;;;;;10.18;87.42;96601.09;5134747;27;19930;-58
2023/05/15 00:21:44;;;;;;;;;;;;;;;10.17;87.13;96590.72;5134589;27;19923;-58
2023/05/15 00:24:10;;;;;;;;;;;;;;;10.17;87.38;96588.94;5134409;27;20292;-58
2023/05/15 00:26:37;;;;;;;;;;;;;;;10.15;87.49;96592.53;5134484;27;20304;-58
2023/05/15 00:29:04;;;;;;;;;;;;;;;10.15;88.01;96592.53;5134390;27;19966;-59
2023/05/15 00:31:32;;;;;;;;;;;;;;;10.13;88.06;96576.88;5134434;27;19938;-58
2023/05/15 00:33:59;;;;;;;;;;;;;;;10.10;89.07;96580.47;5134454;27;19923;-58
2023/05/15 00:36:27;;;;;;;;;;;;;;;10.14;88.79;96578.59;5134494;27;19966;-58
2023/05/15 00:38:54;;;;;;;;;;;;;;;10.19;88.58;96588.88;5134538;27;20361;-59
2023/05/15 00:41:22;;;;;;;;;;;;;;;10.17;88.47;96583.72;5134440;27;19923;-58
2023/05/15 00:43:51;;;;;;;;;;;;;;;10.16;88.53;96573.31;5134442;27;19945;-59
2023/05/15 00:46:19;;;;;;;;;;;;;;;10.18;88.40;96580.19;5134385;27;20281;-58
2023/05/15 00:48:47;;;;;;;;;;;;;;;10.19;88.14;96594.97;5134317;27;20026;-59
2023/05/15 00:51:13;;;;;;;;;;;;;;;10.21;87.41;96602.75;5134244;27;19924;-58
2023/05/15 00:53:42;;;;;;;;;;;;;;;10.19;87.11;96586.25;5134276;27;19976;-58
2023/05/15 00:56:11;;;;;;;;;;;;;;;10.16;86.99;96594.22;5134278;27;20304;-58
2023/05/15 00:58:38;;;;;;;;;;;;;;;10.11;86.59;96589.16;5134340;27;20376;-58
2023/05/15 01:01:05;;;;;;;;;;;;;;;9.99;87.79;96596.53;5134433;27;19930;-58
2023/05/15 01:03:32;;;;;;;;;;;;;;;9.94;88.20;96587.13;5134241;27;20433;-59
2023/05/15 01:05:59;;;;;;;;;;;;;;;9.93;88.37;96585.44;5134326;27;20351;-59
2023/05/15 01:08:27;;;;;;;;;;;;;;;9.93;88.47;96575.00;5134320;27;19962;-59
2023/05/15 01:10:57;;;;;;;;;;;;;;;9.95;88.20;96583.63;5134335;27;19923;-58
2023/05/15 01:13:24;;;;;;;;;;;;;;;9.94;87.83;96574.06;5134007;27;19923;-59
2023/05/15 01:15:51;;;;;;;;;;;;;;;9.95;87.67;96568.78;5134151;27;19934;-59
2023/05/15 01:18:17;;;;;;;;;;;;;;;9.95;87.22;96560.09;5134104;27;19975;-58
2023/05/15 01:20:50;;;;;;;;;;;;;;;9.92;87.10;96560.19;5134049;27;20019;-58
2023/05/15 01:23:21;;;;;;;;;;;;;;;9.92;86.58;96570.66;5134019;27;20022;-58
2023/05/15 01:26:16;;;;;;;;;;;;;;;9.90;86.22;96551.56;5134161;27;20408;-58
2023/05/15 01:28:46;;;;;;;;;;;;;;;9.86;85.93;96537.75;5133798;27;19924;-60
2023/05/15 01:31:15;;;;;;;;;;;;;;;9.84;85.65;96534.34;5133916;27;20299;-60
2023/05/15 01:33:46;;;;;;;;;;;;;;;9.82;85.64;96534.38;5133910;27;19924;-60
2023/05/15 01:36:16;;;;;;;;;;;;;;;9.76;85.10;96524.19;5136332;27;19924;-60
2023/05/15 01:38:46;;;;;;;;;;;;;;;9.67;85.04;96527.97;5137620;27;19924;-60
2023/05/15 01:41:15;;;;;;;;;;;;;;;9.63;85.85;96520.28;5137591;27;19924;-60
2023/05/15 01:43:46;;;;;;;;;;;;;;;9.60;85.70;96516.84;5137607;27;19923;-60
2023/05/15 01:46:14;;;;;;;;;;;;;;;9.53;85.75;96501.44;5137558;27;19931;-60
2023/05/15 01:48:41;;;;;;;;;;;;;;;9.52;85.81;96505.84;5137354;27;19931;-60
2023/05/15 01:51:11;;;;;;;;;;;;;;;9.46;86.04;96506.88;5137271;27;19930;-60
2023/05/15 01:53:38;;;;;;;;;;;;;;;9.39;86.83;96505.38;5137310;27;20018;-60
2023/05/15 01:56:06;;;;;;;;;;;;;;;9.36;86.79;96505.50;5137271;27;19927;-60
2023/05/15 01:58:34;;;;;;;;;;;;;;;9.37;87.17;96506.34;5137312;27;19927;-60
2023/05/15 02:01:02;;;;;;;;;;;;;;;9.39;86.99;96517.59;5137305;27;19924;-60
2023/05/15 02:03:32;;;;;;;;;;;;;;;9.37;86.99;96516.78;5137198;27;19930;-60
2023/05/15 02:05:59;;;;;;;;;;;;;;;9.39;87.32;96533.28;5137193;27;19930;-60
2023/05/15 02:08:27;;;;;;;;;;;;;;;9.37;87.17;96535.94;5137107;27;19935;-60
2023/05/15 02:10:55;;;;;;;;;;;;;;;9.38;86.62;96537.63;5136983;27;19924;-59
2023/05/15 02:13:22;;;;;;;;;;;;;;;9.35;86.43;96520.31;5136966;27;19923;-60
2023/05/15 02:15:49;;;;;;;;;;;;;;;9.34;87.38;96534.25;5136955;27;20292;-60
2023/05/15 02:18:17;;;;;;;;;;;;;;;9.37;87.66;96532.47;5136912;27;20015;-60
2023/05/15 02:20:44;;;;;;;;;;;;;;;9.34;87.77;96526.41;5136850;27;19946;-60
2023/05/15 02:23:11;;;;;;;;;;;;;;;9.37;88.07;96530.72;5136789;27;19968;-60
2023/05/15 02:25:43;;;;;;;;;;;;;;;9.38;88.17;96524.56;5136783;27;20376;-60
2023/05/15 02:28:16;;;;;;;;;;;;;;;9.40;88.02;96524.53;5136594;27;20372;-60
2023/05/15 02:30:46;;;;;;;;;;;;;;;9.40;88.40;96520.16;5136699;27;19923;-60
2023/05/15 02:33:15;;;;;;;;;;;;;;;9.40;88.11;96516.69;5136630;27;20019;-60
2023/05/15 02:35:47;;;;;;;;;;;;;;;9.41;87.77;96521.00;5136511;27;20002;-60
2023/05/15 02:38:16;;;;;;;;;;;;;;;9.41;88.06;96510.56;5136476;27;19924;-60
2023/05/15 02:40:44;;;;;;;;;;;;;;;9.42;88.02;96510.50;5136444;27;19981;-60
2023/05/15 02:43:11;;;;;;;;;;;;;;;9.47;87.77;96502.53;5136449;27;19946;-60
2023/05/15 02:45:39;;;;;;;;;;;;;;;9.41;87.81;96500.97;5136431;27;20014;-60
2023/05/15 02:48:07;;;;;;;;;;;;;;;9.43;88.09;96499.19;5136360;27;20014;-60
2023/05/15 02:50:34;;;;;;;;;;;;;;;9.47;88.63;96486.84;5136289;27;19976;-59
2023/05/15 02:53:03;;;;;;;;;;;;;;;9.48;88.52;96492.03;5136145;27;20016;-60
2023/05/15 02:55:30;;;;;;;;;;;;;;;9.46;88.47;96474.72;5136140;27;19927;-59
2023/05/15 02:57:57;;;;;;;;;;;;;;;9.48;88.50;96471.13;5136175;27;19924;-60
2023/05/15 03:00:24;;;;;;;;;;;;;;;9.51;88.52;96472.78;5135989;27;19923;-60
2023/05/15 03:02:52;;;;;;;;;;;;;;;9.51;88.55;96490.22;5136146;27;19924;-60
2023/05/15 03:05:18;;;;;;;;;;;;;;;9.49;89.05;96490.28;5135939;27;20382;-60
2023/05/15 03:07:46;;;;;;;;;;;;;;;9.53;88.88;96496.22;5135831;27;20371;-60
2023/05/15 03:10:14;;;;;;;;;;;;;;;9.57;88.86;96485.63;5135857;27;19945;-60
2023/05/15 03:12:41;;;;;;;;;;;;;;;9.59;88.19;96464.69;5135772;27;19930;-60
2023/05/15 03:15:08;;;;;;;;;;;;;;;9.55;88.19;96468.31;5135821;27;19927;-60
2023/05/15 03:17:35;;;;;;;;;;;;;;;9.45;89.97;96478.25;5135694;27;19923;-60
2023/05/15 03:20:03;;;;;;;;;;;;;;;9.46;90.89;96482.53;5135634;27;19923;-60
2023/05/15 03:22:30;;;;;;;;;;;;;;;9.49;91.10;96479.81;5135756;27;19930;-60
2023/05/15 03:24:57;;;;;;;;;;;;;;;9.54;90.88;96493.56;5135618;27;19924;-59
2023/05/15 03:27:25;;;;;;;;;;;;;;;9.58;91.09;96512.59;5135219;27;19979;-60
2023/05/15 03:29:53;;;;;;;;;;;;;;;9.61;91.20;96502.88;5135441;27;19978;-60
2023/05/15 03:32:20;;;;;;;;;;;;;;;9.68;90.93;96492.22;5135380;27;19923;-60
2023/05/15 03:34:46;;;;;;;;;;;;;;;9.71;90.75;96487.75;5135399;27;19966;-60
2023/05/15 03:37:14;;;;;;;;;;;;;;;9.78;90.49;96490.16;5135442;27;19923;-60
2023/05/15 03:39:41;;;;;;;;;;;;;;;9.86;90.32;96475.06;5135440;27;20014;-60
2023/05/15 03:42:08;;;;;;;;;;;;;;;9.94;90.03;96478.22;5135252;27;19974;-60
2023/05/15 03:44:37;;;;;;;;;;;;;;;10.02;89.76;96477.94;5135311;27;20022;-59
2023/05/15 03:47:05;;;;;;;;;;;;;;;10.08;89.55;96475.13;5135189;27;19923;-59
2023/05/15 03:49:33;;;;;;;;;;;;;;;10.17;89.88;96484.38;5135181;27;20368;-60
2023/05/15 03:52:01;;;;;;;;;;;;;;;10.29;90.06;96500.53;5134838;27;19930;-59
2023/05/15 03:54:28;;;;;;;;;;;;;;;10.48;89.82;96505.94;5134987;27;19924;-60
2023/05/15 03:56:54;;;;;;;;;;;;;;;10.68;89.43;96510.41;5134988;27;20468;-60
2023/05/15 03:59:21;;;;;;;;;;;;;;;10.94;88.73;96508.53;5134565;27;19924;-59
2023/05/15 04:01:50;;;;;;;;;;;;;;;11.16;87.65;96507.63;5134924;27;19924;-60
2023/05/15 04:04:17;;;;;;;;;;;;;;;11.31;85.57;96506.16;5134864;27;20353;-60
2023/05/15 04:06:44;;;;;;;;;;;;;;;11.39;85.11;96492.75;5134834;27;20345;-59
2023/05/15 04:09:12;;;;;;;;;;;;;;;11.46;84.91;96485.47;5134743;27;19923;-59
2023/05/15 04:11:40;;;;;;;;;;;;;;;11.61;84.80;96481.34;5134779;27;19935;-60
2023/05/15 04:14:07;;;;;;;;;;;;;;;11.82;84.96;96487.44;5134649;27;20288;-60
2023/05/15 04:16:34;;;;;;;;;;;;;;;11.99;85.31;96491.06;5134808;27;19976;-59
2023/05/15 04:19:03;;;;;;;;;;;;;;;12.10;85.07;96493.25;5134661;27;19923;-60
2023/05/15 04:21:31;;;;;;;;;;;;;;;12.22;84.60;96484.00;5134843;27;19923;-59
2023/05/15 04:23:57;;;;;;;;;;;;;;;12.19;85.09;96490.19;5134634;27;20010;-59
2023/05/15 04:26:24;;;;;;;;;;;;;;;12.20;84.31;96488.44;5134685;27;19930;-59
2023/05/15 04:28:52;;;;;;;;;;;;;;;12.22;83.83;96476.13;5134258;27;19923;-59
2023/05/15 04:31:19;;;;;;;;;;;;;;;12.23;84.00;96472.56;5134578;27;19924;-59
2023/05/15 04:33:48;;;;;;;;;;;;;;;12.25;84.14;96482.06;5134408;27;19931;-59
2023/05/15 04:36:17;;;;;;;;;;;;;;;12.28;84.12;96493.34;5134561;27;20385;-59
2023/05/15 04:38:44;;;;;;;;;;;;;;;12.31;84.15;96499.28;5134485;27;19923;-59
2023/05/15 04:41:11;;;;;;;;;;;;;;;12.33;84.09;96497.44;5134370;27;19927;-58
2023/05/15 04:43:38;;;;;;;;;;;;;;;12.34;83.92;96491.28;5134306;27;19931;-58
2023/05/15 04:46:08;;;;;;;;;;;;;;;12.40;83.86;96495.38;5134297;27;20334;-59
2023/05/15 04:48:35;;;;;;;;;;;;;;;12.47;83.75;96504.69;5134320;27;19937;-59
2023/05/15 04:51:02;;;;;;;;;;;;;;;12.50;83.56;96491.41;5134321;27;19923;-58
2023/05/15 04:53:30;;;;;;;;;;;;;;;12.61;84.24;96495.31;5134179;27;19976;-59
2023/05/15 04:55:57;;;;;;;;;;;;;;;12.76;84.28;96488.47;5134268;27;19927;-59
2023/05/15 04:58:25;;;;;;;;;;;;;;;13.00;82.65;96482.97;5134438;27;19923;-59
2023/05/15 05:00:52;;;;;;;;;;;;;;;13.17;82.78;96483.91;5134205;27;19928;-59
2023/05/15 05:03:18;;;;;;;;;;;;;;;13.29;83.03;96501.72;5134345;27;20401;-59
2023/05/15 05:05:46;;;;;;;;;;;;;;;13.35;82.94;96498.78;5134233;27;20381;-59
2023/05/15 05:08:13;;;;;;;;;;;;;;;13.36;83.17;96489.97;5134102;27;20372;-58
2023/05/15 05:10:41;;;;;;;;;;;;;;;13.40;83.04;96488.03;5135790;27;19976;-59
2023/05/15 05:13:08;;;;;;;;;;;;;;;13.38;81.29;96477.63;5138123;27;19923;-59
2023/05/15 05:15:35;;;;;;;;;;;;;;;13.34;76.64;96480.47;5138046;27;19962;-59
2023/05/15 05:18:02;;;;;;;;;;;;;;;13.25;74.50;96481.78;5138137;27;19930;-58
2023/05/15 05:20:29;;;;;;;;;;;;;;;13.13;76.81;96489.31;5138009;27;19924;-58
2023/05/15 05:22:56;;;;;;;;;;;;;;;13.20;76.66;96489.88;5138154;27;19924;-59
2023/05/15 05:25:23;;;;;;;;;;;;;;;13.25;75.86;96494.91;5137872;27;19923;-59
2023/05/15 05:27:51;;;;;;;;;;;;;;;13.22;74.88;96492.44;5137588;27;20517;-58
2023/05/15 05:30:18;;;;;;;;;;;;;;;13.27;76.61;96498.28;5137769;27;19923;-59
2023/05/15 05:32:45;;;;;;;;;;;;;;;13.50;78.27;96496.34;5137614;27;20296;-59
2023/05/15 05:35:12;;;;;;;;;;;;;;;13.64;80.38;96493.00;5137763;27;19966;-59
2023/05/15 05:37:39;;;;;;;;;;;;;;;13.75;78.91;96481.94;5137790;27;19923;-59
2023/05/15 05:40:07;;;;;;;;;;;;;;;13.95;78.58;96487.94;5137666;27;19967;-59
2023/05/15 05:42:34;;;;;;;;;;;;;;;14.14;78.00;96495.69;5137598;27;20372;-59
2023/05/15 05:45:02;;;;;;;;;;;;;;;14.33;78.08;96502.63;5137617;27;19928;-59
2023/05/15 05:47:29;;;;;;;;;;;;;;;14.47;78.58;96507.97;5137492;27;19923;-59
2023/05/15 05:49:56;;;;;;;;;;;;;;;14.61;77.77;96516.91;5121052;27;20319;-59
2023/05/15 05:52:22;;;;;;;;;;;;;;;14.68;76.59;96512.13;5116842;28;19945;-59
2023/05/15 05:54:49;;;;;;;;;;;;;;;14.73;76.08;96515.38;5116709;28;20285;-58
2023/05/15 05:57:16;;;;;;;;;;;;;;;14.73;76.04;96515.38;5116731;28;20019;-59
2023/05/15 05:59:43;;;;;;;;;;;;;;;14.85;74.05;96505.97;5116963;28;19924;-59
2023/05/15 06:02:12;;;;;;;;;;;;;;;14.98;73.86;96501.72;5116793;28;19924;-58
2023/05/15 06:04:38;;;;;;;;;;;;;;;15.12;74.79;96493.03;5116587;28;20001;-59
2023/05/15 06:07:05;;;;;;;;;;;;;;;15.23;71.93;96502.13;5116700;28;19923;-59
2023/05/15 06:09:32;;;;;;;;;;;;;;;15.34;70.25;96498.84;5116398;28;19970;-59
2023/05/15 06:11:59;;;;;;;;;;;;;;;15.54;70.93;96506.44;5116521;28;20300;-59
2023/05/15 06:14:26;;;;;;;;;;;;;;;15.70;70.77;96502.91;5116430;28;19974;-59
2023/05/15 06:16:52;;;;;;;;;;;;;;;15.82;71.10;96490.78;5116345;28;19966;-59
2023/05/15 06:19:21;;;;;;;;;;;;;;;15.82;70.97;96488.13;5116382;28;19971;-58
2023/05/15 06:21:48;;;;;;;;;;;;;;;15.97;71.82;96498.72;5115978;28;19931;-58
2023/05/15 06:24:15;;;;;;;;;;;;;;;15.94;70.21;96507.66;5116268;28;20011;-59
2023/05/15 06:26:41;;;;;;;;;;;;;;;15.90;71.66;96509.59;5116162;28;19927;-59
2023/05/15 06:29:08;;;;;;;;;;;;;;;15.88;70.67;96506.22;5115943;28;19924;-58
2023/05/15 06:31:35;;;;;;;;;;;;;;;15.88;70.87;96516.78;5116028;28;19923;-59
2023/05/15 06:34:01;;;;;;;;;;;;;;;15.81;71.66;96519.88;5116022;28;19930;-59
2023/05/15 06:36:30;;;;;;;;;;;;;;;15.77;71.02;96516.56;5115945;28;20365;-59
2023/05/15 06:38:56;;;;;;;;;;;;;;;15.67;71.79;96513.63;5115891;28;19924;-59
2023/05/15 06:41:23;;;;;;;;;;;;;;;15.61;72.03;96513.97;5115985;28;19924;-58
2023/05/15 06:43:50;;;;;;;;;;;;;;;15.69;72.39;96505.63;5115947;28;19924;-59
2023/05/15 06:46:17;;;;;;;;;;;;;;;15.74;72.41;96496.50;5115747;28;20015;-59
2023/05/15 06:48:44;;;;;;;;;;;;;;;15.82;71.05;96493.41;5115747;28;19947;-59
2023/05/15 06:51:11;;;;;;;;;;;;;;;15.88;71.10;96495.69;5115819;28;20321;-59
2023/05/15 06:53:39;;;;;;;;;;;;;;;15.89;70.56;96499.16;5115582;28;19924;-59
2023/05/15 06:56:06;;;;;;;;;;;;;;;15.92;70.72;96505.09;5115656;28;19924;-59
2023/05/15 06:58:33;;;;;;;;;;;;;;;16.01;70.69;96495.81;5115537;28;20345;-59
2023/05/15 07:01:00;;;;;;;;;;;;;;;16.03;69.96;96485.16;5115544;28;20002;-59
2023/05/15 07:03:26;;;;;;;;;;;;;;;16.01;70.59;96487.03;5115500;28;20292;-59
2023/05/15 07:05:53;;;;;;;;;;;;;;;16.04;69.51;96502.69;5115285;28;19924;-59
2023/05/15 07:08:20;;;;;;;;;;;;;;;16.02;69.09;96496.66;5115434;28;19924;-59
2023/05/15 07:10:48;;;;;;;;;;;;;;;16.11;68.78;96495.25;5115420;28;20285;-59
2023/05/15 07:13:16;;;;;;;;;;;;;;;16.23;68.71;96491.00;5115152;28;19930;-59
2023/05/15 07:15:43;;;;;;;;;;;;;;;16.16;67.28;96488.75;5115230;28;20466;-59
2023/05/15 07:18:10;;;;;;;;;;;;;;;16.07;67.57;96491.94;5115062;28;19924;-59
2023/05/15 07:20:36;;;;;;;;;;;;;;;16.08;68.77;96491.03;5115193;28;20289;-59
2023/05/15 07:23:03;;;;;;;;;;;;;;;16.21;69.08;96493.75;5114985;28;19924;-59
2023/05/15 07:25:30;;;;;;;;;;;;;;;16.29;67.78;96482.72;5115039;28;20380;-59
2023/05/15 07:27:58;;;;;;;;;;;;;;;16.34;69.06;96488.53;5114686;28;19924;-59
2023/05/15 07:30:25;;;;;;;;;;;;;;;16.48;69.73;96486.84;5114953;27;19966;-60
2023/05/15 07:32:52;;;;;;;;;;;;;;;16.55;69.21;96469.66;5114112;28;19957;-59
2023/05/15 07:35:19;;;;;;;;;;;;;;;16.70;67.63;96473.13;5114882;28;19924;-59
2023/05/15 07:37:46;;;;;;;;;;;;;;;16.83;65.60;96472.34;5114782;28;19924;-59
2023/05/15 07:40:14;;;;;;;;;;;;;;;16.96;63.63;96467.09;5114855;28;19923;-59
2023/05/15 07:42:41;;;;;;;;;;;;;;;17.24;63.90;96474.09;5114749;27;19977;-60
2023/05/15 07:45:10;;;;;;;;;;;;;;;16.99;61.32;96473.03;5114640;28;20377;-59
2023/05/15 07:47:37;;;;;;;;;;;;;;;17.10;61.48;96464.41;5114657;28;19967;-59
2023/05/15 07:50:04;;;;;;;;;;;;;;;17.08;61.77;96466.34;5114505;28;20010;-60
2023/05/15 07:52:30;;;;;;;;;;;;;;;17.10;63.24;96468.88;5114581;28;19924;-59
2023/05/15 07:54:57;;;;;;;;;;;;;;;17.34;61.87;96482.25;5114475;28;19924;-59
2023/05/15 07:57:25;;;;;;;;;;;;;;;17.63;60.49;96482.09;5114252;28;19930;-59
2023/05/15 07:59:52;;;;;;;;;;;;;;;17.80;61.40;96474.81;5114255;28;19923;-59
2023/05/15 08:02:20;;;;;;;;;;;;;;;18.00;60.37;96478.72;5114185;28;20006;-60
2023/05/15 08:04:47;;;;;;;;;;;;;;;18.14;59.12;96483.09;5114254;28;19930;-60
2023/05/15 08:07:14;;;;;;;;;;;;;;;18.15;58.05;96491.91;5114331;28;19923;-60
2023/05/15 08:09:41;;;;;;;;;;;;;;;17.99;57.64;96498.22;5114230;28;20335;-60
2023/05/15 08:12:19;;;;;;;;;;;;;;;17.93;60.08;96493.34;5114206;28;20077;-60
2023/05/15 08:14:47;;;;;;;;;;;;;;;17.84;62.93;96486.03;5114113;28;19969;-60
2023/05/15 08:17:14;;;;;;;;;;;;;;;17.75;65.34;96492.78;5114127;28;20014;-60
2023/05/15 08:19:42;;;;;;;;;;;;;;;17.64;64.75;96491.72;5114151;28;19938;-60
2023/05/15 08:22:09;;;;;;;;;;;;;;;17.65;64.78;96498.72;5113864;28;20026;-60
2023/05/15 08:24:36;;;;;;;;;;;;;;;17.57;61.38;96513.41;5113825;28;19923;-60
2023/05/15 08:27:05;;;;;;;;;;;;;;;17.56;61.38;96517.84;5113718;28;20300;-60
2023/05/15 08:29:32;;;;;;;;;;;;;;;17.75;59.42;96506.88;5113865;28;19931;-60
2023/05/15 08:32:00;;;;;;;;;;;;;;;18.00;57.96;96496.41;5113795;28;19923;-60
2023/05/15 08:34:26;;;;;;;;;;;;;;;18.11;57.41;96495.69;5113730;28;19978;-60
2023/05/15 08:36:55;;;;;;;;;;;;;;;18.31;56.53;96489.00;5113722;28;19923;-60
2023/05/15 08:39:22;;;;;;;;;;;;;;;18.36;55.16;96486.03;5113752;28;19924;-60
2023/05/15 08:41:53;;;;;;;;;;;;;;;18.49;55.06;96483.38;5113770;28;20293;-60
2023/05/15 08:44:21;;;;;;;;;;;;;;;18.60;55.83;96480.78;5114961;28;19959;-60
2023/05/15 08:46:49;;;;;;;;;;;;;;;18.61;57.50;96477.19;5117894;28;19966;-59
2023/05/15 08:49:20;;;;;;;;;;;;;;;18.64;57.07;96476.97;5118044;28;19924;-60
2023/05/15 08:51:47;;;;;;;;;;;;;;;18.76;57.32;96474.41;5118008;28;19977;-59
2023/05/15 08:54:15;;;;;;;;;;;;;;;18.86;55.17;96475.41;5117717;28;19928;-59
2023/05/15 08:56:42;;;;;;;;;;;;;;;19.04;55.77;96475.03;5117700;28;20366;-59
2023/05/15 08:59:09;;;;;;;;;;;;;;;19.30;56.61;96478.41;5117707;28;20006;-60
2023/05/15 09:01:36;;;;;;;;;;;;;;;19.45;57.43;96473.75;5117728;28;19927;-60
2023/05/15 09:04:03;;;;;;;;;;;;;;;19.47;52.51;96480.78;5117735;28;19981;-60
2023/05/15 09:06:30;;;;;;;;;;;;;;;19.36;54.61;96470.97;5117502;27;19975;-59
2023/05/15 09:08:57;;;;;;;;;;;;;;;19.50;52.38;96485.84;5117478;28;20016;-59
2023/05/15 09:11:27;;;;;;;;;;;;;;;19.63;53.66;96486.59;5117487;28;20343;-60
2023/05/15 09:13:54;;;;;;;;;;;;;;;19.59;51.38;96497.59;5117383;28;20009;-60
2023/05/15 09:16:21;;;;;;;;;;;;;;;19.57;52.16;96487.91;5117462;28;19928;-60
2023/05/15 09:18:49;;;;;;;;;;;;;;;19.64;53.49;96477.69;5117522;28;19924;-59
2023/05/15 09:21:23;;;;;;;;;;;;;;;19.66;54.95;96478.41;5117340;27;19924;-59
2023/05/15 09:23:49;;;;;;;;;;;;;;;19.84;55.46;96472.69;5117293;28;20373;-60
2023/05/15 09:26:16;;;;;;;;;;;;;;;19.90;55.17;96469.53;5117339;28;20330;-60
2023/05/15 09:28:46;;;;;;;;;;;;;;;19.90;55.55;96466.03;5116906;28;19981;-60
2023/05/15 09:31:13;;;;;;;;;;;;;;;20.13;54.90;96469.59;5117120;28;19927;-59
2023/05/15 09:33:41;;;;;;;;;;;;;;;20.30;52.89;96464.75;5117099;28;20466;-60
2023/05/15 09:36:09;;;;;;;;;;;;;;;20.39;52.31;96464.03;5117023;28;20010;-59
2023/05/15 09:38:40;;;;;;;;;;;;;;;20.15;52.11;96450.88;5116890;28;19976;-59
2023/05/15 09:41:08;;;;;;;;;;;;;;;20.16;53.25;96440.16;5116819;28;19923;-59
2023/05/15 09:43:35;;;;;;;;;;;;;;;20.23;54.26;96429.91;5116867;28;19923;-60
2023/05/15 09:46:04;;;;;;;;;;;;;;;20.27;54.15;96427.81;5116767;28;19924;-59
2023/05/15 09:48:31;;;;;;;;;;;;;;;20.29;52.50;96416.09;5116728;28;19928;-59
2023/05/15 09:50:58;;;;;;;;;;;;;;;20.23;51.98;96407.81;5116902;27;20034;-60
2023/05/15 09:53:25;;;;;;;;;;;;;;;20.23;54.65;96403.34;5116846;28;20010;-60
2023/05/15 09:55:53;;;;;;;;;;;;;;;20.24;53.09;96399.72;5116092;28;19924;-60
2023/05/15 09:58:20;;;;;;;;;;;;;;;20.01;52.04;96401.50;5116746;28;20296;-59
2023/05/15 10:00:48;;;;;;;;;;;;;;;19.77;52.57;96407.75;5116715;28;19924;-60
2023/05/15 10:03:17;;;;;;;;;;;;;;;19.66;53.50;96408.59;5116631;28;20002;-59
2023/05/15 10:05:44;;;;;;;;;;;;;;;19.60;53.97;96395.81;5116681;28;20012;-59
2023/05/15 10:08:11;;;;;;;;;;;;;;;19.48;54.72;96392.28;5116676;28;19924;-59
2023/05/15 10:10:38;;;;;;;;;;;;;;;19.47;54.66;96398.56;5116551;28;19963;-59
2023/05/15 10:13:08;;;;;;;;;;;;;;;19.41;54.54;96395.41;5116561;28;20043;-59
2023/05/15 10:15:36;;;;;;;;;;;;;;;19.63;54.73;96387.63;5116456;28;19924;-59
2023/05/15 10:18:04;;;;;;;;;;;;;;;19.79;52.87;96382.81;5116392;28;19924;-59
2023/05/15 10:20:34;;;;;;;;;;;;;;;19.79;52.38;96377.50;5116384;28;19923;-60
2023/05/15 10:23:04;;;;;;;;;;;;;;;19.74;51.84;96376.19;5116238;28;19927;-59
2023/05/15 10:25:34;;;;;;;;;;;;;;;19.65;52.47;96381.22;5116358;28;19930;-59
2023/05/15 10:28:01;;;;;;;;;;;;;;;19.50;52.16;96379.78;5115980;28;19928;-60
2023/05/15 10:30:29;;;;;;;;;;;;;;;19.43;52.33;96374.06;5116188;28;20345;-59
2023/05/15 10:32:56;;;;;;;;;;;;;;;19.52;52.58;96368.06;5116165;28;19927;-60
2023/05/15 10:35:23;;;;;;;;;;;;;;;19.70;52.54;96371.09;5116064;28;19975;-59
2023/05/15 10:37:53;;;;;;;;;;;;;;;20.08;54.62;96373.56;5116044;28;19931;-59
2023/05/15 10:40:21;;;;;;;;;;;;;;;20.42;56.19;96373.50;5115951;28;19950;-60
2023/05/15 10:42:49;;;;;;;;;;;;;;;20.68;53.20;96367.84;5116010;28;19931;-60
2023/05/15 10:45:17;;;;;;;;;;;;;;;20.99;52.73;96368.97;5115884;28;19924;-60
2023/05/15 10:47:45;;;;;;;;;;;;;;;21.18;50.28;96366.47;5115841;27;19934;-60
2023/05/15 10:50:13;;;;;;;;;;;;;;;20.96;48.41;96362.94;5115802;28;19924;-60
2023/05/15 10:52:40;;;;;;;;;;;;;;;20.77;46.81;96360.09;5115678;28;19924;-59
2023/05/15 10:55:10;;;;;;;;;;;;;;;20.64;48.92;96361.09;5115606;28;20381;-60
2023/05/15 10:57:37;;;;;;;;;;;;;;;20.66;50.40;96364.50;5115564;28;20399;-60
2023/05/15 11:00:06;;;;;;;;;;;;;;;20.79;51.04;96366.13;5115648;28;19934;-60
2023/05/15 11:02:38;;;;;;;;;;;;;;;20.88;52.42;96359.19;5115527;28;19954;-59
2023/05/15 11:05:06;;;;;;;;;;;;;;;20.91;51.69;96353.66;5115494;28;19924;-60
2023/05/15 11:07:33;;;;;;;;;;;;;;;20.95;51.56;96352.47;5114600;27;19924;-60
2023/05/15 11:10:00;;;;;;;;;;;;;;;21.10;51.51;96365.44;5115308;28;19928;-60
2023/05/15 11:12:48;;;;;;;;;;;;;;;21.01;49.09;96361.72;5115288;28;19967;-60
2023/05/15 11:15:19;;;;;;;;;;;;;;;21.07;47.36;96343.44;5115049;28;19931;-60
2023/05/15 11:18:00;;;;;;;;;;;;;;;21.20;47.50;96342.41;5115272;28;19923;-60
2023/05/15 11:20:32;;;;;;;;;;;;;;;21.15;50.19;96347.25;5115198;28;19946;-59
2023/05/15 11:22:59;;;;;;;;;;;;;;;21.39;50.40;96349.66;5115412;28;19941;-60
2023/05/15 11:25:29;;;;;;;;;;;;;;;21.63;50.74;96353.00;5115067;28;19924;-60
2023/05/15 11:27:58;;;;;;;;;;;;;;;21.54;51.13;96351.97;5114736;28;20331;-60
2023/05/15 11:30:35;;;;;;;;;;;;;;;21.45;47.08;96358.94;5114923;28;19923;-59
2023/05/15 11:33:03;;;;;;;;;;;;;;;21.39;49.63;96356.78;5115042;28;19924;-59
2023/05/15 11:35:31;;;;;;;;;;;;;;;21.18;50.70;96353.16;5114817;28;19924;-60
2023/05/15 11:37:59;;;;;;;;;;;;;;;20.87;47.35;96368.16;5114881;28;19976;-60
2023/05/15 11:40:27;;;;;;;;;;;;;;;20.60;48.42;96364.13;5114785;28;19992;-59
2023/05/15 11:43:06;;;;;;;;;;;;;;;20.28;48.16;96369.28;5114732;28;19961;-59
2023/05/15 11:45:34;;;;;;;;;;;;;;;19.93;48.83;96362.31;5114790;28;19970;-59
2023/05/15 11:48:02;;;;;;;;;;;;;;;19.84;49.83;96363.88;5114708;28;19966;-59
2023/05/15 11:50:30;;;;;;;;;;;;;;;19.65;50.67;96370.59;5114584;28;20270;-59
2023/05/15 11:52:57;;;;;;;;;;;;;;;19.56;50.41;96366.88;5114506;28;20369;-59
2023/05/15 11:55:25;;;;;;;;;;;;;;;19.44;49.88;96375.75;5114510;28;20308;-59
2023/05/15 11:57:52;;;;;;;;;;;;;;;19.36;49.84;96368.41;5114473;28;20426;-59
2023/05/15 12:00:21;;;;;;;;;;;;;;;19.29;49.13;96373.31;5114394;28;19963;-60
2023/05/15 12:02:47;;;;;;;;;;;;;;;19.16;51.10;96381.38;5114360;28;20381;-59
2023/05/15 12:05:14;;;;;;;;;;;;;;;19.36;52.50;96384.31;5114356;28;19931;-60
2023/05/15 12:07:42;;;;;;;;;;;;;;;19.66;52.80;96387.38;5114268;28;20019;-60
2023/05/15 12:10:10;;;;;;;;;;;;;;;19.83;52.59;96386.03;5114345;28;19924;-60
2023/05/15 12:12:39;;;;;;;;;;;;;;;19.94;51.29;96387.88;5114261;28;19931;-60
2023/05/15 12:15:06;;;;;;;;;;;;;;;19.92;52.70;96387.13;5114477;28;19977;-60
2023/05/15 12:17:36;;;;;;;;;;;;;;;19.81;52.47;96388.00;5114210;28;19965;-59
2023/05/15 12:20:04;;;;;;;;;;;;;;;19.82;50.63;96390.53;5114028;28;19950;-60
2023/05/15 12:22:36;;;;;;;;;;;;;;;19.81;50.96;96395.97;5114069;28;19934;-59
2023/05/15 12:25:03;;;;;;;;;;;;;;;19.73;51.55;96401.00;5114093;28;20281;-60
2023/05/15 12:27:30;;;;;;;;;;;;;;;19.69;50.70;96406.53;5113792;28;19928;-59
2023/05/15 12:29:59;;;;;;;;;;;;;;;19.87;51.24;96407.91;5113339;28;20212;-60
2023/05/15 12:32:26;;;;;;;;;;;;;;;19.85;50.58;96415.97;5114037;28;19927;-60
2023/05/15 12:34:55;;;;;;;;;;;;;;;19.81;49.56;96410.06;5113904;28;19924;-59
2023/05/15 12:37:21;;;;;;;;;;;;;;;19.83;50.03;96404.63;5114029;28;19953;-59
2023/05/15 12:39:55;;;;;;;;;;;;;;;19.87;49.36;96402.59;5113927;28;20282;-59
2023/05/15 12:42:22;;;;;;;;;;;;;;;19.97;49.57;96411.53;5113955;28;19931;-60
2023/05/15 12:44:50;;;;;;;;;;;;;;;20.14;50.53;96407.53;5113931;28;19924;-59
2023/05/15 12:47:21;;;;;;;;;;;;;;;20.32;51.08;96405.25;5113924;28;19924;-60
2023/05/15 12:49:48;;;;;;;;;;;;;;;20.34;49.97;96405.13;5113833;28;19931;-60
2023/05/15 12:52:17;;;;;;;;;;;;;;;20.33;49.21;96390.16;5113873;28;20413;-59